Friday, November 16, 2018, 1:12 AM GMT
Back to Local

CWWZ, Port Weller, Ont.

Location: , , Canada Lat: 43.25
Local Time: 1:12 AM GMT ( 1:12 GMT) Lon: -79.217
Time Zone: GMT Elev: 259 ft

Show me the last for .
Show Coded

Time T Td Feel RH Dir Speed Gust Alt SLP Vis Weather Sky Remarks
2018-11-16 00:00 32 30 24 92 90° 10 - - 30.04 0 1-hr Precip Total: 0.02"
2018-11-15 23:00 31 29 22 92 90° 12 - - 30.07 0 Peak wind: 19 mph (17 kts) from 80° at 05 min
1-hr Precip Total: 0.04"
2018-11-15 22:00 33 29 22 86 90° 16 - - 30.11 0 Peak wind: 19 mph (17 kts) from 100° at 41 min
1-hr Precip Total: 0.05"
2018-11-15 21:00 31 29 22 94 90° 12 - - 30.15 0 1-hr Precip Total: 0.04"
2018-11-15 20:00 32 27 25 82 120° 8 - - 30.18 0 None
2018-11-15 19:00 34 22 26 61 110° 9 - - 30.20 0 None
2018-11-15 18:00 33 21 25 61 110° 10 - - 30.23 0 None
2018-11-15 17:00 32 21 24 64 120° 9 - - 30.27 0 None
2018-11-15 16:00 31 22 22 67 110° 13 - - 30.31 0 None
2018-11-15 15:00 30 21 20 67 110° 14 - - 30.34 0 Peak wind: 20 mph (18 kts) from 100° at 37 min
2018-11-15 14:00 30 22 18 73 100° 17 - - 30.38 0 Peak wind: 21 mph (19 kts) from 110° at 53 min
2018-11-15 13:00 29 22 18 75 110° 14 - - 30.41 0 Peak wind: 20 mph (18 kts) from 100° at 08 min
2018-11-15 12:00 29 23 18 76 110° 15 - - 30.43 0 Peak wind: 20 mph (18 kts) from 110° at 58 min
2018-11-15 11:00 29 22 19 76 110° 13 - - 30.43 0 None
2018-11-15 10:00 29 23 18 76 100° 14 - - 30.44 0 None
2018-11-15 09:00 29 21 19 71 110° 13 - - 30.49 0 None
2018-11-15 08:00 29 22 19 72 120° 13 - - 30.53 0 None
2018-11-15 07:00 31 21 22 65 120° 12 - - 30.52 0 None
2018-11-15 06:00 30 20 21 66 110° 12 - - 30.55 0 None
2018-11-15 05:00 31 21 21 66 100° 13 - - 30.56 0 None
2018-11-15 04:00 31 21 22 66 110° 10 - - 30.56 0 None
2018-11-15 03:00 32 24 23 71 90° 12 - - 30.56 0 None
2018-11-15 02:00 32 24 23 72 60° 13 - - 30.57 0 None

Support USWX by starting your Amazon purchase here.